createdAt,value
2019-05-10T05:11:29.914Z,92.46
2019-05-10T05:21:29.464Z,91.44
2019-05-10T05:31:29.423Z,90.17
2019-05-10T05:41:31.912Z,88.51
2019-05-10T05:51:29.682Z,87.42
2019-05-10T06:01:29.774Z,83.11
2019-05-10T06:11:29.728Z,84.19
2019-05-10T06:21:29.756Z,82.53
2019-05-10T06:31:29.416Z,77.98
2019-05-10T06:41:32.442Z,81.17
2019-05-10T06:51:29.668Z,80.52
2019-05-10T07:01:29.218Z,80.17
2019-05-10T07:11:29.792Z,80.92
2019-05-10T07:21:29.688Z,80.45
2019-05-10T07:31:30.569Z,79.09
2019-05-10T07:41:29.598Z,79.39
2019-05-10T07:51:30.362Z,80.76
2019-05-10T08:01:32.363Z,82.91
2019-05-10T08:11:29.639Z,82.86
2019-05-10T08:21:32.041Z,87.02
2019-05-10T08:31:31.876Z,91.32
2019-05-10T08:41:29.400Z,88.63
2019-05-10T08:51:29.676Z,89.26
2019-05-10T09:01:31.357Z,88.43
2019-05-10T09:11:29.678Z,90.55
2019-05-10T09:21:32.031Z,93.77
2019-05-10T09:31:29.638Z,94.98
2019-05-10T09:41:35.995Z,92.17
2019-05-10T09:51:30.975Z,89.79
2019-05-10T10:01:30.471Z,89.99
2019-05-10T10:11:29.733Z,89.48
2019-05-10T10:21:35.157Z,87.41
2019-05-10T10:31:33.050Z,85.06
2019-05-10T10:41:31.926Z,85.05
2019-05-10T10:51:31.974Z,82.57
2019-05-10T11:01:45.663Z,80.60
2019-05-10T11:11:38.462Z,75.29
2019-05-10T11:21:32.899Z,71.72
2019-05-10T11:31:31.227Z,71.38
2019-05-10T11:41:31.460Z,68.11
2019-05-10T11:51:31.528Z,67.01
2019-05-10T12:01:29.677Z,67.92
2019-05-10T12:11:33.806Z,67.93
2019-05-10T12:21:33.125Z,69.54
2019-05-10T12:31:31.117Z,70.50
2019-05-10T12:41:31.594Z,68.72
2019-05-10T12:51:31.251Z,62.71
2019-05-10T13:01:31.740Z,64.92
2019-05-10T13:11:32.569Z,64.92
2019-05-10T13:21:30.611Z,67.40
2019-05-10T13:31:29.586Z,65.38
2019-05-10T13:41:29.755Z,65.25
2019-05-10T13:51:29.404Z,66.18
2019-05-10T14:01:29.672Z,63.31
2019-05-10T14:11:34.108Z,64.84
2019-05-10T14:21:29.711Z,62.15
2019-05-10T14:31:30.620Z,62.99
2019-05-10T14:41:29.860Z,61.02
2019-05-10T14:51:44.086Z,61.53
2019-05-10T15:01:30.225Z,60.56
2019-05-10T15:11:33.218Z,54.76
2019-05-10T15:21:29.844Z,53.13
2019-05-10T15:31:30.847Z,61.41
2019-05-10T15:41:29.676Z,61.00
2019-05-10T15:51:36.095Z,59.38
2019-05-10T16:01:32.324Z,56.83
2019-05-10T16:11:29.923Z,61.83
2019-05-10T16:21:29.871Z,59.87
2019-05-10T16:31:29.930Z,59.62
2019-05-10T16:41:29.907Z,57.42
2019-05-10T16:51:30.312Z,58.69
2019-05-10T17:01:33.381Z,55.76
2019-05-10T17:11:29.797Z,62.51
2019-05-10T17:21:30.155Z,65.50
2019-05-10T17:31:29.958Z,68.56
2019-05-10T17:41:30.023Z,66.46
2019-05-10T17:51:28.746Z,66.21
2019-05-10T18:01:28.814Z,67.78
2019-05-10T18:11:29.723Z,68.35
2019-05-10T18:21:30.394Z,69.02
2019-05-10T18:31:29.837Z,67.88
2019-05-10T18:41:29.820Z,68.88
2019-05-10T18:51:29.683Z,76.33
2019-05-10T19:01:32.830Z,80.63
